Terminal Aerodrome Forecast
Issued by NWS Spokane, WA

Home | Current Version | Previous Version | Text Only | Print | Product List | Glossary On
Versions: 1 2 3 4 5 6 7 8 9 10 11 12
000
FTUS46 KOTX 271138
TAFEAT
TAF
KEAT 271138Z 2712/2812 30009KT P6SM SCT200
     FM271700 31012KT P6SM FEW120 SCT150
     FM280000 31012KT P6SM FEW200=

USA.gov is the U.S. government's official web portal to all federal, state and local government web resources and services.